Time;durP1;ratioP1;P1;durP2;ratioP2;P2;SDS_P1;SDS_P2;PMS_P1;PMS_P2;Temp;Humidity;BMP_temperature;BMP_pressure;BME280_temperature;BME280_humidity;BME280_pressure;Samples;Min_cycle;Max_cycle;Signal;HPM_P1;HPM_P2
2021/06/30 00:00:10;;;;;;;3.03;2.17;;;;;;;;;;5111903;27;20822;-74
2021/06/30 00:02:51;;;;;;;5.17;2.10;;;;;;;;;;5070899;28;20822;-74
2021/06/30 00:05:27;;;;;;;3.43;2.10;;;;;;;;;;5111355;27;20830;-74
2021/06/30 00:08:04;;;;;;;2.33;2.10;;;;;;;;;;5070428;28;21424;-74
2021/06/30 00:10:42;;;;;;;5.47;2.10;;;;;;;;;;5123748;27;20840;-74
2021/06/30 00:13:21;;;;;;;4.07;2.13;;;;;;;;;;5111181;27;20880;-74
2021/06/30 00:15:57;;;;;;;3.27;1.90;;;;;;;;;;5111678;27;20872;-74
2021/06/30 00:18:34;;;;;;;2.23;2.03;;;;;;;;;;5070505;28;20823;-74
2021/06/30 00:21:10;;;;;;;6.33;2.13;;;;;;;;;;5111342;27;21179;-74
2021/06/30 00:23:47;;;;;;;5.27;2.20;;;;;;;;;;5111943;27;20835;-74
2021/06/30 00:26:23;;;;;;;2.50;1.93;;;;;;;;;;5111159;27;20834;-74
2021/06/30 00:29:00;;;;;;;4.30;2.23;;;;;;;;;;5070169;28;21296;-74
2021/06/30 00:31:37;;;;;;;7.37;2.03;;;;;;;;;;5071351;28;20803;-74
2021/06/30 00:34:13;;;;;;;4.00;2.37;;;;;;;;;;5111027;27;20803;-74
2021/06/30 00:36:50;;;;;;;3.40;2.00;;;;;;;;;;5111132;27;20861;-74
2021/06/30 00:39:26;;;;;;;4.23;2.10;;;;;;;;;;5070566;28;20823;-74
2021/06/30 00:42:03;;;;;;;4.53;2.20;;;;;;;;;;5111355;27;20800;-74
2021/06/30 00:44:44;;;;;;;4.23;2.23;;;;;;;;;;5111915;27;21232;-74
2021/06/30 00:47:21;;;;;;;3.17;2.20;;;;;;;;;;5111540;27;20861;-73
2021/06/30 00:49:58;;;;;;;3.70;2.10;;;;;;;;;;5110196;27;20804;-74
2021/06/30 00:52:34;;;;;;;5.17;2.00;;;;;;;;;;5111857;27;20861;-74
2021/06/30 00:55:11;;;;;;;3.53;1.80;;;;;;;;;;5070695;28;20814;-74
2021/06/30 00:57:49;;;;;;;3.27;2.10;;;;;;;;;;5070824;28;20823;-74
2021/06/30 01:00:26;;;;;;;4.97;2.40;;;;;;;;;;5111433;27;20842;-74
2021/06/30 01:03:02;;;;;;;5.90;2.50;;;;;;;;;;5111896;27;20853;-74
2021/06/30 01:05:39;;;;;;;2.80;1.80;;;;;;;;;;5110797;27;20833;-74
2021/06/30 01:08:15;;;;;;;2.67;2.17;;;;;;;;;;5059838;28;20832;-74
2021/06/30 01:10:52;;;;;;;3.53;2.10;;;;;;;;;;5111730;27;20821;-74
2021/06/30 01:13:29;;;;;;;3.60;2.03;;;;;;;;;;5108007;27;20847;-73
2021/06/30 01:16:06;;;;;;;3.27;2.20;;;;;;;;;;5070681;28;20814;-74
2021/06/30 01:18:42;;;;;;;4.13;2.40;;;;;;;;;;5111176;27;20865;-74
2021/06/30 01:21:18;;;;;;;4.43;2.70;;;;;;;;;;5070573;28;20807;-74
2021/06/30 01:23:55;;;;;;;3.60;2.80;;;;;;;;;;5110972;27;21408;-74
2021/06/30 01:26:32;;;;;;;3.10;2.23;;;;;;;;;;5070498;28;20868;-74
2021/06/30 01:29:09;;;;;;;10.00;2.93;;;;;;;;;;5083999;27;20831;-74
2021/06/30 01:31:46;;;;;;;3.80;2.23;;;;;;;;;;5071312;28;21151;-74
2021/06/30 01:34:23;;;;;;;2.63;2.43;;;;;;;;;;5070605;28;21431;-74
2021/06/30 01:37:00;;;;;;;5.97;2.40;;;;;;;;;;5110881;27;20823;-73
2021/06/30 01:39:36;;;;;;;8.07;2.80;;;;;;;;;;5111889;27;20811;-74
2021/06/30 01:42:13;;;;;;;5.20;2.60;;;;;;;;;;5070608;28;21388;-74
2021/06/30 01:44:49;;;;;;;2.93;2.10;;;;;;;;;;5111367;27;20842;-74
2021/06/30 01:47:26;;;;;;;3.87;2.70;;;;;;;;;;5111791;27;20866;-74
2021/06/30 01:50:04;;;;;;;3.63;2.80;;;;;;;;;;5111707;27;20816;-74
2021/06/30 01:52:43;;;;;;;6.50;3.00;;;;;;;;;;5111699;27;20872;-74
2021/06/30 01:55:19;;;;;;;3.40;2.50;;;;;;;;;;5111064;27;21396;-74
2021/06/30 01:57:56;;;;;;;4.93;2.40;;;;;;;;;;5143304;27;20799;-74
2021/06/30 02:00:33;;;;;;;3.13;2.00;;;;;;;;;;5071108;28;20803;-74
2021/06/30 02:03:11;;;;;;;4.80;1.80;;;;;;;;;;5125839;22;20879;-74
2021/06/30 02:05:47;;;;;;;3.50;1.37;;;;;;;;;;5110823;27;20853;-74
2021/06/30 02:08:24;;;;;;;6.30;1.87;;;;;;;;;;5071137;28;20896;-74
2021/06/30 02:11:00;;;;;;;3.57;1.60;;;;;;;;;;5092133;27;20843;-74
2021/06/30 02:13:37;;;;;;;1.93;1.50;;;;;;;;;;5071308;28;21228;-74
2021/06/30 02:16:14;;;;;;;8.20;1.50;;;;;;;;;;5111884;27;20822;-74
2021/06/30 02:18:51;;;;;;;2.23;1.33;;;;;;;;;;5111090;27;20861;-74
2021/06/30 02:21:28;;;;;;;3.33;1.40;;;;;;;;;;5111449;27;21253;-74
2021/06/30 02:24:06;;;;;;;4.17;1.67;;;;;;;;;;5070920;28;20815;-75
2021/06/30 02:26:43;;;;;;;2.77;1.57;;;;;;;;;;5030927;28;20872;-75
2021/06/30 02:29:20;;;;;;;3.03;2.73;;;;;;;;;;5007410;28;20873;-74
2021/06/30 02:31:56;;;;;;;2.57;2.13;;;;;;;;;;5111184;27;21182;-74
2021/06/30 02:34:34;;;;;;;4.30;2.83;;;;;;;;;;5130712;27;21283;-75
2021/06/30 02:37:22;;;;;;;3.17;2.20;;;;;;;;;;5106413;27;20847;-75
2021/06/30 02:40:00;;;;;;;4.53;2.30;;;;;;;;;;5111436;27;20838;-74
2021/06/30 02:42:37;;;;;;;3.60;2.30;;;;;;;;;;5110892;27;20837;-74
2021/06/30 02:45:15;;;;;;;3.33;2.13;;;;;;;;;;5111577;27;20812;-74
2021/06/30 02:47:53;;;;;;;2.57;1.87;;;;;;;;;;5070478;28;20811;-75
2021/06/30 02:50:29;;;;;;;5.03;2.00;;;;;;;;;;5071126;28;21268;-75
2021/06/30 02:53:06;;;;;;;2.23;2.03;;;;;;;;;;5111838;27;20804;-74
2021/06/30 02:55:42;;;;;;;2.97;2.20;;;;;;;;;;5111349;27;20838;-74
2021/06/30 02:58:19;;;;;;;2.10;1.80;;;;;;;;;;5152897;27;20836;-74
2021/06/30 03:00:56;;;;;;;3.07;1.93;;;;;;;;;;5007765;28;20877;-74
2021/06/30 03:03:33;;;;;;;2.50;2.30;;;;;;;;;;5071274;28;20811;-74
2021/06/30 03:06:09;;;;;;;3.23;2.30;;;;;;;;;;5066878;27;21400;-74
2021/06/30 03:08:47;;;;;;;4.07;2.43;;;;;;;;;;5110680;27;20897;-74
2021/06/30 03:11:24;;;;;;;2.47;1.80;;;;;;;;;;5111382;27;20860;-73
2021/06/30 03:14:00;;;;;;;2.57;2.00;;;;;;;;;;5070556;28;21283;-74
2021/06/30 03:16:37;;;;;;;3.30;2.00;;;;;;;;;;5111587;27;21248;-74
2021/06/30 03:19:14;;;;;;;3.50;1.60;;;;;;;;;;5070094;28;20842;-74
2021/06/30 03:21:52;;;;;;;2.80;1.60;;;;;;;;;;5111933;27;20873;-74
2021/06/30 03:24:28;;;;;;;3.97;1.60;;;;;;;;;;5110873;27;20846;-74
2021/06/30 03:27:05;;;;;;;1.97;1.70;;;;;;;;;;5108893;27;21283;-74
2021/06/30 03:29:42;;;;;;;1.93;1.50;;;;;;;;;;5007346;28;20872;-74
2021/06/30 03:32:18;;;;;;;4.73;1.30;;;;;;;;;;5111857;27;20811;-74
2021/06/30 03:34:55;;;;;;;1.33;1.23;;;;;;;;;;5111367;27;20872;-74
2021/06/30 03:37:31;;;;;;;1.53;1.10;;;;;;;;;;5131971;27;20833;-75
2021/06/30 03:40:09;;;;;;;5.33;1.53;;;;;;;;;;5111841;27;20829;-74
2021/06/30 03:42:47;;;;;;;3.33;1.30;;;;;;;;;;5111884;27;21373;-74
2021/06/30 03:45:23;;;;;;;1.23;1.13;;;;;;;;;;5111803;27;20822;-74
2021/06/30 03:48:00;;;;;;;1.13;1.03;;;;;;;;;;5110485;27;20849;-75
2021/06/30 03:50:36;;;;;;;2.90;1.00;;;;;;;;;;5111387;27;20829;-74
2021/06/30 03:53:13;;;;;;;3.63;1.17;;;;;;;;;;5111908;27;20810;-74
2021/06/30 03:55:49;;;;;;;2.97;1.10;;;;;;;;;;5132209;27;20798;-75
2021/06/30 03:58:26;;;;;;;2.87;1.20;;;;;;;;;;5110633;27;20917;-74
2021/06/30 04:01:03;;;;;;;3.27;1.17;;;;;;;;;;5111923;27;20865;-74
2021/06/30 04:03:43;;;;;;;2.60;0.87;;;;;;;;;;5111274;27;20837;-75
2021/06/30 04:06:22;;;;;;;1.07;0.90;;;;;;;;;;5111515;27;20825;-74
2021/06/30 04:08:59;;;;;;;2.17;0.90;;;;;;;;;;5110563;27;20928;-75
2021/06/30 04:11:35;;;;;;;1.40;0.90;;;;;;;;;;5111443;27;20857;-74
2021/06/30 04:14:12;;;;;;;1.10;0.90;;;;;;;;;;5111868;27;20830;-75
2021/06/30 04:16:49;;;;;;;1.00;0.90;;;;;;;;;;5071286;28;21438;-74
2021/06/30 04:19:25;;;;;;;1.87;0.83;;;;;;;;;;5111811;27;20865;-75
2021/06/30 04:22:02;;;;;;;0.70;0.70;;;;;;;;;;5070562;28;20845;-76
2021/06/30 04:24:38;;;;;;;0.80;0.80;;;;;;;;;;5111885;27;21437;-74
2021/06/30 04:27:15;;;;;;;1.50;0.70;;;;;;;;;;5109140;27;20881;-75
2021/06/30 04:29:52;;;;;;;2.00;0.63;;;;;;;;;;5071293;28;20807;-75
2021/06/30 04:32:28;;;;;;;0.73;0.60;;;;;;;;;;5070235;28;21287;-75
2021/06/30 04:35:07;;;;;;;0.87;0.60;;;;;;;;;;5111892;27;20837;-75
2021/06/30 04:37:43;;;;;;;0.70;0.60;;;;;;;;;;5110929;27;20877;-74
2021/06/30 04:40:20;;;;;;;1.63;0.70;;;;;;;;;;5111809;27;21434;-74
2021/06/30 04:42:56;;;;;;;0.50;0.50;;;;;;;;;;5092168;27;21278;-75
2021/06/30 04:45:33;;;;;;;0.80;0.53;;;;;;;;;;5111916;27;20800;-75
2021/06/30 04:48:09;;;;;;;2.03;0.60;;;;;;;;;;5008209;28;21254;-74
2021/06/30 04:50:46;;;;;;;2.70;0.60;;;;;;;;;;5070453;28;21206;-75
2021/06/30 04:53:23;;;;;;;1.23;0.50;;;;;;;;;;5071340;28;20803;-75
2021/06/30 04:55:59;;;;;;;1.30;0.40;;;;;;;;;;5111514;27;20830;-75
2021/06/30 04:58:36;;;;;;;1.07;0.60;;;;;;;;;;5131268;27;20840;-75
2021/06/30 05:01:12;;;;;;;0.53;0.40;;;;;;;;;;5111587;27;20849;-74
2021/06/30 05:03:49;;;;;;;0.93;0.60;;;;;;;;;;5110790;27;21494;-74
2021/06/30 05:06:26;;;;;;;0.93;0.70;;;;;;;;;;5132408;27;20805;-74
2021/06/30 05:09:03;;;;;;;1.30;0.80;;;;;;;;;;5110996;27;20861;-74
2021/06/30 05:11:41;;;;;;;1.43;0.87;;;;;;;;;;5111243;27;20845;-75
2021/06/30 05:14:17;;;;;;;1.83;0.50;;;;;;;;;;5110996;27;21279;-74
2021/06/30 05:16:54;;;;;;;1.60;0.60;;;;;;;;;;5006827;28;20869;-74
2021/06/30 05:19:31;;;;;;;2.53;0.60;;;;;;;;;;5070510;28;20831;-75
2021/06/30 05:22:09;;;;;;;0.70;0.40;;;;;;;;;;5070685;28;20795;-74
2021/06/30 05:24:45;;;;;;;1.97;0.43;;;;;;;;;;5111965;27;21268;-74
2021/06/30 05:27:22;;;;;;;0.63;0.50;;;;;;;;;;5109880;27;20843;-74
2021/06/30 05:30:45;;;;;;;1.10;0.47;;;;;;;;;;5110766;27;21400;-75
2021/06/30 05:33:21;;;;;;;0.73;0.50;;;;;;;;;;5110809;27;20877;-75
2021/06/30 05:35:58;;;;;;;0.40;0.40;;;;;;;;;;5111885;27;20838;-74
2021/06/30 05:38:35;;;;;;;1.17;0.47;;;;;;;;;;5110545;27;20845;-75
2021/06/30 05:41:11;;;;;;;3.23;0.80;;;;;;;;;;5111651;27;20856;-74
2021/06/30 05:43:48;;;;;;;0.37;0.30;;;;;;;;;;5070862;28;20807;-74
2021/06/30 05:46:24;;;;;;;0.67;0.40;;;;;;;;;;5091223;28;20824;-74
2021/06/30 05:49:01;;;;;;;0.47;0.40;;;;;;;;;;5091984;27;21888;-76
2021/06/30 05:51:39;;;;;;;2.37;0.40;;;;;;;;;;5111814;27;21218;-74
2021/06/30 05:54:16;;;;;;;1.10;0.53;;;;;;;;;;5110588;27;21411;-74
2021/06/30 05:56:52;;;;;;;1.97;0.50;;;;;;;;;;5070083;28;21271;-75
2021/06/30 05:59:29;;;;;;;0.23;0.23;;;;;;;;;;5055356;28;20824;-75
2021/06/30 06:02:06;;;;;;;0.40;0.40;;;;;;;;;;5111398;27;20788;-75
2021/06/30 06:04:44;;;;;;;0.40;0.30;;;;;;;;;;5071231;28;20815;-74
2021/06/30 06:07:20;;;;;;;0.60;0.40;;;;;;;;;;5106594;27;20851;-75
2021/06/30 06:09:58;;;;;;;0.67;0.30;;;;;;;;;;5111048;27;20807;-75
2021/06/30 06:12:36;;;;;;;0.30;0.30;;;;;;;;;;5111169;27;20861;-74
2021/06/30 06:15:12;;;;;;;1.00;0.30;;;;;;;;;;5007127;28;20853;-74
2021/06/30 06:17:48;;;;;;;0.53;0.37;;;;;;;;;;5131408;27;20886;-75
2021/06/30 06:20:25;;;;;;;3.83;0.37;;;;;;;;;;5111721;27;20845;-75
2021/06/30 06:23:02;;;;;;;0.93;0.20;;;;;;;;;;5111455;27;20826;-74
2021/06/30 06:25:38;;;;;;;0.30;0.20;;;;;;;;;;5131678;27;20832;-74
2021/06/30 06:28:15;;;;;;;0.33;0.30;;;;;;;;;;5111795;27;21400;-75
2021/06/30 06:30:52;;;;;;;0.47;0.30;;;;;;;;;;5132365;27;21355;-75
2021/06/30 06:33:29;;;;;;;0.40;0.40;;;;;;;;;;5111721;27;20814;-75
2021/06/30 06:36:08;;;;;;;2.20;0.40;;;;;;;;;;5111220;27;20814;-74
2021/06/30 06:38:45;;;;;;;1.47;0.40;;;;;;;;;;5111050;27;20853;-74
2021/06/30 06:41:23;;;;;;;0.30;0.30;;;;;;;;;;5111097;27;20842;-75
2021/06/30 06:43:59;;;;;;;0.20;0.20;;;;;;;;;;5111873;27;20826;-75
2021/06/30 06:46:40;;;;;;;0.80;0.30;;;;;;;;;;5111624;27;21450;-75
2021/06/30 06:49:17;;;;;;;0.47;0.30;;;;;;;;;;5027480;28;21278;-75
2021/06/30 06:51:54;;;;;;;1.23;0.40;;;;;;;;;;5131680;27;20821;-75
2021/06/30 06:54:31;;;;;;;2.90;0.30;;;;;;;;;;5111123;27;20815;-74
2021/06/30 06:57:07;;;;;;;0.40;0.30;;;;;;;;;;5085102;28;20892;-74
2021/06/30 06:59:44;;;;;;;0.63;0.30;;;;;;;;;;5111824;27;20830;-75
2021/06/30 07:02:20;;;;;;;4.47;0.40;;;;;;;;;;5107554;27;20853;-75
2021/06/30 07:04:57;;;;;;;2.50;0.40;;;;;;;;;;5107719;27;20857;-75
2021/06/30 07:07:40;;;;;;;0.50;0.20;;;;;;;;;;5107619;27;20862;-75
2021/06/30 07:10:17;;;;;;;0.57;0.20;;;;;;;;;;5067482;28;20814;-76
2021/06/30 07:12:53;;;;;;;0.40;0.30;;;;;;;;;;5014332;28;21457;-76
2021/06/30 07:15:30;;;;;;;0.77;0.20;;;;;;;;;;5107672;27;20876;-75
2021/06/30 07:18:12;;;;;;;0.50;0.30;;;;;;;;;;5067086;28;20819;-75
2021/06/30 07:20:51;;;;;;;1.57;0.30;;;;;;;;;;5087520;27;20856;-75
2021/06/30 07:23:29;;;;;;;0.30;0.20;;;;;;;;;;5107152;27;20880;-75
2021/06/30 07:26:08;;;;;;;0.20;0.20;;;;;;;;;;5107506;27;20852;-76
2021/06/30 07:28:46;;;;;;;0.60;0.30;;;;;;;;;;5107679;27;21300;-75
2021/06/30 07:31:22;;;;;;;0.20;0.13;;;;;;;;;;5067197;28;20803;-76
2021/06/30 07:33:59;;;;;;;0.40;0.30;;;;;;;;;;5107799;27;20812;-76
2021/06/30 07:36:36;;;;;;;0.80;0.30;;;;;;;;;;5066843;28;21708;-75
2021/06/30 07:39:12;;;;;;;0.30;0.30;;;;;;;;;;5107587;27;20853;-75
2021/06/30 07:41:54;;;;;;;0.80;0.30;;;;;;;;;;5087358;27;20853;-75
2021/06/30 07:44:32;;;;;;;0.60;0.27;;;;;;;;;;5067195;28;20802;-75
2021/06/30 07:47:10;;;;;;;0.30;0.30;;;;;;;;;;5107443;27;20861;-76
2021/06/30 07:49:47;;;;;;;0.80;0.30;;;;;;;;;;5142051;27;20810;-76
2021/06/30 07:52:23;;;;;;;0.20;0.20;;;;;;;;;;5107820;27;20846;-75
2021/06/30 07:55:00;;;;;;;0.50;0.30;;;;;;;;;;5067200;28;20818;-75
2021/06/30 07:57:37;;;;;;;0.97;0.23;;;;;;;;;;5047089;28;21530;-75
2021/06/30 08:00:15;;;;;;;0.57;0.40;;;;;;;;;;5066835;28;21285;-76
2021/06/30 08:02:53;;;;;;;0.23;0.20;;;;;;;;;;5107719;27;20833;-76
2021/06/30 08:05:32;;;;;;;0.70;0.30;;;;;;;;;;5067325;28;20819;-75
2021/06/30 08:08:08;;;;;;;0.40;0.30;;;;;;;;;;5107725;27;20877;-76
2021/06/30 08:10:44;;;;;;;0.40;0.20;;;;;;;;;;5128028;27;20798;-75
2021/06/30 08:13:21;;;;;;;0.37;0.27;;;;;;;;;;5066578;28;20884;-75
2021/06/30 08:15:58;;;;;;;0.90;0.43;;;;;;;;;;5107851;27;20880;-75
2021/06/30 08:18:34;;;;;;;2.47;0.27;;;;;;;;;;5107574;27;20849;-76
2021/06/30 08:21:11;;;;;;;0.57;0.30;;;;;;;;;;5107725;27;20827;-75
2021/06/30 08:23:47;;;;;;;0.30;0.30;;;;;;;;;;5107333;27;20833;-75
2021/06/30 08:26:24;;;;;;;1.00;0.30;;;;;;;;;;5067091;28;20837;-76
2021/06/30 08:29:01;;;;;;;1.33;0.40;;;;;;;;;;5128002;27;20828;-75
2021/06/30 08:31:37;;;;;;;0.50;0.30;;;;;;;;;;5107866;27;21567;-76
2021/06/30 08:34:14;;;;;;;0.63;0.40;;;;;;;;;;5107575;27;20861;-75
2021/06/30 08:36:55;;;;;;;0.30;0.23;;;;;;;;;;5116090;27;20863;-76
2021/06/30 08:39:32;;;;;;;0.70;0.20;;;;;;;;;;5067318;28;20837;-75
2021/06/30 08:42:08;;;;;;;0.70;0.30;;;;;;;;;;5087452;28;20817;-76
2021/06/30 08:44:45;;;;;;;0.30;0.30;;;;;;;;;;5107723;27;20826;-75
2021/06/30 08:47:23;;;;;;;0.30;0.30;;;;;;;;;;5107411;27;21303;-76
2021/06/30 08:50:02;;;;;;;0.47;0.37;;;;;;;;;;5123475;27;20827;-76
2021/06/30 08:52:41;;;;;;;0.60;0.40;;;;;;;;;;5114671;27;20895;-75
2021/06/30 08:55:18;;;;;;;0.30;0.30;;;;;;;;;;5124308;27;20842;-75
2021/06/30 08:57:54;;;;;;;0.20;0.20;;;;;;;;;;5067008;28;20842;-76
2021/06/30 09:00:31;;;;;;;0.20;0.17;;;;;;;;;;5066375;28;20849;-75
2021/06/30 09:03:20;;;;;;;5.67;0.30;;;;;;;;;;5107220;27;20835;-76
2021/06/30 09:08:36;;;;;;;0.60;0.30;;;;;;;;;;5093124;27;20846;-76
2021/06/30 09:11:26;;;;;;;1.03;0.33;;;;;;;;;;5107410;27;21494;-76
2021/06/30 09:14:12;;;;;;;4.10;0.43;;;;;;;;;;5047945;28;21464;-76
2021/06/30 09:16:59;;;;;;;0.20;0.13;;;;;;;;;;5107810;27;20865;-75
2021/06/30 09:19:49;;;;;;;0.33;0.33;;;;;;;;;;5004392;28;20835;-75
2021/06/30 09:22:27;;;;;;;2.67;0.40;;;;;;;;;;5086771;27;20866;-75
2021/06/30 09:25:05;;;;;;;0.73;0.40;;;;;;;;;;5107282;27;20818;-76
2021/06/30 09:27:45;;;;;;;1.20;0.40;;;;;;;;;;5100705;27;20880;-76
2021/06/30 09:30:21;;;;;;;0.93;0.30;;;;;;;;;;5107857;27;21267;-75
2021/06/30 09:33:01;;;;;;;0.33;0.20;;;;;;;;;;5107393;27;21503;-75
2021/06/30 09:35:39;;;;;;;1.50;0.40;;;;;;;;;;5123784;22;20893;-74
2021/06/30 09:38:33;;;;;;;0.53;0.40;;;;;;;;;;5053609;28;20850;-74
2021/06/30 09:41:29;;;;;;;0.40;0.20;;;;;;;;;;5110534;27;20880;-76
2021/06/30 09:44:13;;;;;;;3.40;0.40;;;;;;;;;;5111494;27;20841;-76
2021/06/30 09:46:53;;;;;;;0.30;0.30;;;;;;;;;;5111554;27;20838;-74
2021/06/30 09:49:31;;;;;;;0.97;0.30;;;;;;;;;;5070982;28;20861;-74
2021/06/30 09:52:16;;;;;;;0.30;0.30;;;;;;;;;;5111207;27;20815;-74
2021/06/30 09:55:29;;;;;;;1.93;0.50;;;;;;;;;;5111491;28;20193;-74
2021/06/30 09:58:06;;;;;;;2.47;0.60;;;;;;;;;;5111891;27;20827;-74
2021/06/30 10:00:43;;;;;;;0.70;0.40;;;;;;;;;;5110721;27;20808;-75
2021/06/30 10:03:38;;;;;;;0.60;0.20;;;;;;;;;;5111280;27;21461;-76
2021/06/30 10:06:30;;;;;;;0.40;0.40;;;;;;;;;;5066063;28;20924;-76
2021/06/30 10:09:06;;;;;;;2.67;0.30;;;;;;;;;;5120366;27;21224;-76
2021/06/30 10:11:55;;;;;;;0.90;0.40;;;;;;;;;;5107593;27;20818;-76
2021/06/30 10:14:32;;;;;;;0.30;0.30;;;;;;;;;;5107335;27;20811;-75
2021/06/30 10:17:11;;;;;;;0.30;0.30;;;;;;;;;;5003918;28;20879;-76
2021/06/30 10:19:51;;;;;;;3.50;0.30;;;;;;;;;;5067030;28;20814;-75
2021/06/30 10:22:29;;;;;;;2.23;0.80;;;;;;;;;;5067065;28;21400;-75
2021/06/30 10:25:07;;;;;;;0.30;0.30;;;;;;;;;;5107569;27;20845;-75
2021/06/30 10:27:43;;;;;;;0.30;0.30;;;;;;;;;;5097394;27;20818;-75
2021/06/30 10:30:20;;;;;;;0.77;0.30;;;;;;;;;;5107025;27;21416;-75
2021/06/30 10:33:01;;;;;;;3.50;0.60;;;;;;;;;;5066355;28;21480;-75
2021/06/30 10:35:46;;;;;;;0.80;0.40;;;;;;;;;;5069692;28;20849;-73
2021/06/30 10:38:27;;;;;;;0.20;0.20;;;;;;;;;;5070666;28;20826;-74
2021/06/30 10:41:44;;;;;;;1.23;0.20;;;;;;;;;;5070827;28;21384;-75
2021/06/30 10:44:22;;;;;;;1.87;0.43;;;;;;;;;;5071370;28;21256;-74
2021/06/30 10:47:27;;;;;;;1.23;0.30;;;;;;;;;;5069930;28;21412;-76
2021/06/30 10:50:17;;;;;;;0.30;0.23;;;;;;;;;;5111934;27;20853;-76
2021/06/30 10:53:03;;;;;;;1.37;0.20;;;;;;;;;;5070910;28;21384;-76
2021/06/30 10:55:41;;;;;;;0.70;0.47;;;;;;;;;;5111978;27;20865;-76
2021/06/30 10:58:26;;;;;;;1.50;0.33;;;;;;;;;;5109123;27;20892;-76
2021/06/30 11:01:08;;;;;;;0.93;0.47;;;;;;;;;;5070099;28;20874;-76
2021/06/30 11:03:51;;;;;;;1.60;0.40;;;;;;;;;;5111492;27;20816;-76
2021/06/30 11:06:29;;;;;;;2.33;0.73;;;;;;;;;;5132446;27;20802;-76
2021/06/30 11:09:08;;;;;;;3.40;0.60;;;;;;;;;;5069757;28;20830;-75
2021/06/30 11:11:45;;;;;;;1.30;0.40;;;;;;;;;;5111169;27;20877;-75
2021/06/30 11:14:38;;;;;;;0.50;0.40;;;;;;;;;;5070605;28;20811;-75
2021/06/30 11:17:32;;;;;;;0.80;0.30;;;;;;;;;;5107941;27;20886;-76
2021/06/30 11:20:09;;;;;;;0.97;0.60;;;;;;;;;;5111870;27;20830;-76
2021/06/30 11:22:45;;;;;;;1.13;0.40;;;;;;;;;;5111525;27;21365;-76
2021/06/30 11:25:24;;;;;;;0.40;0.40;;;;;;;;;;5111424;27;20853;-76
2021/06/30 11:28:00;;;;;;;0.53;0.47;;;;;;;;;;5058623;28;20870;-76
2021/06/30 11:30:37;;;;;;;1.80;0.40;;;;;;;;;;5069555;28;20826;-76
2021/06/30 11:33:15;;;;;;;1.53;0.30;;;;;;;;;;5102663;27;21267;-76
2021/06/30 11:36:00;;;;;;;1.17;0.50;;;;;;;;;;5111582;27;20815;-76
2021/06/30 11:38:39;;;;;;;2.30;0.57;;;;;;;;;;5068935;28;21311;-76
2021/06/30 11:41:23;;;;;;;0.40;0.40;;;;;;;;;;5070798;28;21389;-76
2021/06/30 11:44:01;;;;;;;0.30;0.30;;;;;;;;;;5091587;27;20798;-74
2021/06/30 11:46:39;;;;;;;0.87;0.53;;;;;;;;;;5111533;27;20845;-74
2021/06/30 11:49:19;;;;;;;1.40;0.67;;;;;;;;;;5110682;27;20816;-76
2021/06/30 11:52:01;;;;;;;0.80;0.50;;;;;;;;;;5111888;27;21380;-76
2021/06/30 11:54:38;;;;;;;2.33;0.90;;;;;;;;;;5111126;27;20865;-76
2021/06/30 11:57:15;;;;;;;0.40;0.30;;;;;;;;;;5110812;27;20824;-76
2021/06/30 12:00:08;;;;;;;0.50;0.30;;;;;;;;;;5111579;27;21265;-76
2021/06/30 12:02:55;;;;;;;0.60;0.40;;;;;;;;;;5111180;27;21494;-77
2021/06/30 12:05:38;;;;;;;4.00;0.90;;;;;;;;;;5070916;28;20871;-76
2021/06/30 12:08:15;;;;;;;0.83;0.43;;;;;;;;;;5111346;27;21273;-75
2021/06/30 12:10:51;;;;;;;2.43;0.53;;;;;;;;;;5070476;28;20843;-76
2021/06/30 12:13:28;;;;;;;0.50;0.40;;;;;;;;;;5111899;27;21357;-77
2021/06/30 12:16:05;;;;;;;1.63;0.60;;;;;;;;;;5111737;27;20808;-76
2021/06/30 12:18:41;;;;;;;0.57;0.40;;;;;;;;;;5100041;27;20822;-76
2021/06/30 12:21:18;;;;;;;1.50;0.43;;;;;;;;;;5070319;28;21465;-77
2021/06/30 12:23:54;;;;;;;0.63;0.50;;;;;;;;;;5111735;27;20876;-76
2021/06/30 12:26:31;;;;;;;2.20;0.57;;;;;;;;;;5111125;27;20834;-76
2021/06/30 12:29:17;;;;;;;0.97;0.57;;;;;;;;;;5056051;28;20836;-76
2021/06/30 12:31:55;;;;;;;0.50;0.40;;;;;;;;;;5111334;27;20846;-76
2021/06/30 12:34:33;;;;;;;3.13;0.50;;;;;;;;;;5110710;27;21211;-76
2021/06/30 12:37:21;;;;;;;0.70;0.50;;;;;;;;;;5071131;28;21147;-74
2021/06/30 12:40:05;;;;;;;1.63;0.40;;;;;;;;;;5071155;28;20959;-75
2021/06/30 12:42:58;;;;;;;3.90;0.60;;;;;;;;;;5111038;27;20815;-76
2021/06/30 12:45:52;;;;;;;0.80;0.50;;;;;;;;;;5111829;27;20812;-76
2021/06/30 12:48:37;;;;;;;0.57;0.40;;;;;;;;;;5086568;27;21283;-74
2021/06/30 12:51:15;;;;;;;0.53;0.50;;;;;;;;;;5071086;28;20795;-75
2021/06/30 12:54:03;;;;;;;0.63;0.47;;;;;;;;;;5110610;27;20850;-76
2021/06/30 12:56:43;;;;;;;0.63;0.53;;;;;;;;;;5070444;28;20845;-76
2021/06/30 12:59:21;;;;;;;0.90;0.50;;;;;;;;;;5107149;27;21258;-76
2021/06/30 13:02:15;;;;;;;3.97;0.77;;;;;;;;;;5004118;28;21203;-76
2021/06/30 13:04:54;;;;;;;0.40;0.40;;;;;;;;;;5107764;27;20811;-76
2021/06/30 13:07:43;;;;;;;2.03;0.80;;;;;;;;;;5107438;27;20859;-76
2021/06/30 13:10:20;;;;;;;1.23;0.53;;;;;;;;;;5066371;28;20853;-76
2021/06/30 13:13:09;;;;;;;2.33;0.77;;;;;;;;;;5107455;27;21562;-76
2021/06/30 13:15:46;;;;;;;0.60;0.50;;;;;;;;;;5107861;27;20826;-76
2021/06/30 13:18:23;;;;;;;0.57;0.57;;;;;;;;;;5089572;27;20815;-77
2021/06/30 13:21:12;;;;;;;1.67;0.60;;;;;;;;;;5066509;28;21403;-76
2021/06/30 13:30:13;;;;;;;0.70;0.60;;;;;;;;;;5066344;28;20826;-77
2021/06/30 13:36:04;;;;;;;1.00;0.47;;;;;;;;;;5153301;27;20876;-80
2021/06/30 13:38:47;;;;;;;0.93;0.50;;;;;;;;;;5110218;27;20875;-79
2021/06/30 13:41:24;;;;;;;1.13;0.70;;;;;;;;;;5069030;28;20825;-79
2021/06/30 13:44:00;;;;;;;1.20;0.60;;;;;;;;;;5111437;27;20810;-78
2021/06/30 13:46:43;;;;;;;1.60;0.83;;;;;;;;;;5007064;28;21413;-78
2021/06/30 13:49:21;;;;;;;6.00;0.80;;;;;;;;;;5051821;28;20838;-79
2021/06/30 13:51:58;;;;;;;2.83;0.57;;;;;;;;;;5072381;28;20841;-79
2021/06/30 13:54:35;;;;;;;1.53;1.07;;;;;;;;;;5112556;27;20845;-79
2021/06/30 13:57:11;;;;;;;2.53;0.70;;;;;;;;;;5108073;27;21477;-78
2021/06/30 13:59:48;;;;;;;2.07;0.70;;;;;;;;;;5111269;27;20804;-78
2021/06/30 14:02:24;;;;;;;3.37;0.70;;;;;;;;;;5071024;28;20841;-80
2021/06/30 14:05:01;;;;;;;0.90;0.73;;;;;;;;;;5070154;28;20812;-79
2021/06/30 14:07:38;;;;;;;1.43;0.60;;;;;;;;;;5152458;27;20850;-78
2021/06/30 14:10:15;;;;;;;2.23;0.70;;;;;;;;;;5110350;27;21462;-78
2021/06/30 14:12:52;;;;;;;2.13;0.90;;;;;;;;;;5108591;27;20841;-78
2021/06/30 14:15:29;;;;;;;2.97;0.80;;;;;;;;;;5006347;28;20862;-79
2021/06/30 14:18:06;;;;;;;1.07;0.77;;;;;;;;;;5044824;27;20917;-78
2021/06/30 14:20:44;;;;;;;0.60;0.60;;;;;;;;;;5069963;28;20900;-78
2021/06/30 14:23:25;;;;;;;1.87;0.60;;;;;;;;;;5109614;27;21425;-77
2021/06/30 14:26:03;;;;;;;1.50;0.83;;;;;;;;;;5052888;28;20825;-78
2021/06/30 14:28:40;;;;;;;2.47;0.90;;;;;;;;;;5108986;27;21448;-78
2021/06/30 14:31:17;;;;;;;0.60;0.60;;;;;;;;;;5107920;27;20892;-78
2021/06/30 14:33:57;;;;;;;13.37;1.00;;;;;;;;;;5109841;27;20841;-78
2021/06/30 14:36:35;;;;;;;2.30;0.77;;;;;;;;;;5070464;28;20822;-78
2021/06/30 14:39:11;;;;;;;0.93;0.70;;;;;;;;;;5064069;28;21393;-79
2021/06/30 14:41:48;;;;;;;0.63;0.63;;;;;;;;;;5111019;27;20849;-78
2021/06/30 14:44:24;;;;;;;3.00;0.50;;;;;;;;;;5111447;27;20845;-79
2021/06/30 14:47:01;;;;;;;0.60;0.60;;;;;;;;;;5068088;28;20895;-79
2021/06/30 14:49:38;;;;;;;1.37;0.60;;;;;;;;;;5111828;27;20820;-79
2021/06/30 14:52:16;;;;;;;2.50;0.93;;;;;;;;;;5110219;27;20816;-78
2021/06/30 14:54:52;;;;;;;0.80;0.60;;;;;;;;;;5069968;28;20819;-78
2021/06/30 14:57:29;;;;;;;1.20;0.87;;;;;;;;;;5069672;28;20838;-78
2021/06/30 15:00:09;;;;;;;1.73;0.70;;;;;;;;;;5070336;28;20814;-79
2021/06/30 15:02:47;;;;;;;2.87;1.23;;;;;;;;;;5080876;28;20841;-77
2021/06/30 15:05:24;;;;;;;2.13;1.07;;;;;;;;;;5109666;27;20892;-78
2021/06/30 15:08:03;;;;;;;1.20;0.90;;;;;;;;;;5099489;27;20865;-77
2021/06/30 15:10:40;;;;;;;3.83;1.00;;;;;;;;;;5087677;28;20867;-76
2021/06/30 15:13:17;;;;;;;1.70;1.47;;;;;;;;;;5109254;27;20858;-77
2021/06/30 15:15:53;;;;;;;3.53;1.50;;;;;;;;;;5083941;28;20845;-77
2021/06/30 15:18:30;;;;;;;1.23;1.13;;;;;;;;;;5069061;28;20892;-77
2021/06/30 15:21:07;;;;;;;1.90;1.03;;;;;;;;;;5108560;27;20807;-77
2021/06/30 15:23:43;;;;;;;2.00;1.20;;;;;;;;;;5068495;28;20821;-77
2021/06/30 15:26:20;;;;;;;1.60;1.20;;;;;;;;;;5067201;28;20818;-77
2021/06/30 15:28:56;;;;;;;1.33;0.93;;;;;;;;;;5108991;27;20861;-77
2021/06/30 15:31:35;;;;;;;3.27;0.80;;;;;;;;;;5108532;27;20804;-78
2021/06/30 15:34:11;;;;;;;0.70;0.60;;;;;;;;;;5067569;28;20815;-77
2021/06/30 15:36:51;;;;;;;2.37;0.50;;;;;;;;;;5108117;27;20830;-77
2021/06/30 15:39:32;;;;;;;1.80;0.60;;;;;;;;;;5107975;27;20880;-78
2021/06/30 15:42:09;;;;;;;2.50;0.60;;;;;;;;;;5109527;27;20850;-77
2021/06/30 15:44:46;;;;;;;0.50;0.47;;;;;;;;;;5067698;28;20877;-78
2021/06/30 15:47:22;;;;;;;2.73;0.73;;;;;;;;;;5088417;28;21325;-77
2021/06/30 15:49:59;;;;;;;1.83;0.70;;;;;;;;;;5068662;28;20880;-78
2021/06/30 15:52:40;;;;;;;1.83;0.93;;;;;;;;;;5107719;27;20837;-77
2021/06/30 15:56:03;;;;;;;0.70;0.70;;;;;;;;;;5109757;28;20180;-78
2021/06/30 15:58:50;;;;;;;2.30;0.70;;;;;;;;;;5038369;28;24691;-78
2021/06/30 16:01:26;;;;;;;1.00;0.90;;;;;;;;;;5067099;28;20826;-76
2021/06/30 16:04:19;;;;;;;1.83;1.03;;;;;;;;;;5068790;28;24665;-78